createdAt,value
2018-10-05T00:01:40.240Z,100214.95
2018-10-05T00:04:10.959Z,100212.44
2018-10-05T00:06:41.245Z,100210.77
2018-10-05T00:09:12.833Z,100214.13
2018-10-05T00:11:43.367Z,100209.10
2018-10-05T00:14:13.629Z,100207.75
2018-10-05T00:16:44.164Z,100205.11
2018-10-05T00:19:15.404Z,100210.08
2018-10-05T00:21:45.669Z,100205.23
2018-10-05T00:24:16.250Z,100200.00
2018-10-05T00:26:46.895Z,100197.63
2018-10-05T00:29:17.729Z,100201.11
2018-10-05T00:31:48.273Z,100195.42
2018-10-05T00:34:18.537Z,100195.75
2018-10-05T00:36:49.112Z,100192.30
2018-10-05T00:39:19.605Z,100189.39
2018-10-05T00:41:50.145Z,100184.02
2018-10-05T00:44:20.674Z,100188.12
2018-10-05T00:46:51.214Z,100178.54
2018-10-05T00:49:21.743Z,100177.14
2018-10-05T00:51:52.297Z,100180.28
2018-10-05T00:54:22.856Z,100176.19
2018-10-05T00:56:53.404Z,100169.64
2018-10-05T00:59:23.949Z,100174.38
2018-10-05T01:01:54.933Z,100177.36
2018-10-05T01:04:25.302Z,100182.17
2018-10-05T01:06:56.048Z,100175.42
2018-10-05T01:09:26.373Z,100176.82
2018-10-05T01:11:56.629Z,100167.17
2018-10-05T01:14:27.195Z,100161.94
2018-10-05T01:16:59.748Z,100137.64
2018-10-05T01:19:29.962Z,100167.55
2018-10-05T01:22:01.276Z,100167.51
2018-10-05T01:24:33.700Z,100166.13
2018-10-05T01:27:04.229Z,100160.73
2018-10-05T01:29:35.388Z,100153.78
2018-10-05T01:32:05.945Z,100149.51
2018-10-05T01:34:36.209Z,100143.95
2018-10-05T01:37:06.760Z,100151.73
2018-10-05T01:39:37.321Z,100149.55
2018-10-05T01:42:07.584Z,100057.52
2018-10-05T01:44:38.112Z,100140.45
2018-10-05T01:47:08.675Z,100147.94
2018-10-05T01:49:39.241Z,100139.18
2018-10-05T01:52:09.803Z,100134.24
2018-10-05T01:54:45.934Z,100134.67
2018-10-05T01:57:16.460Z,100133.58
2018-10-05T01:59:47.306Z,100131.31
2018-10-05T02:02:18.053Z,100133.69
2018-10-05T02:04:48.696Z,100131.00
2018-10-05T02:07:19.225Z,100130.52
2018-10-05T02:09:49.677Z,100136.31
2018-10-05T02:12:20.586Z,100126.34
2018-10-05T02:14:50.817Z,100121.77
2018-10-05T02:17:21.090Z,100133.81
2018-10-05T02:19:51.719Z,100129.78
2018-10-05T02:22:22.234Z,100134.20
2018-10-05T02:24:52.871Z,100136.77
2018-10-05T02:27:23.472Z,100126.08
2018-10-05T02:29:54.785Z,100124.36
2018-10-05T02:32:25.324Z,100117.22
2018-10-05T02:34:55.861Z,100121.20
2018-10-05T02:37:26.810Z,100121.36
2018-10-05T02:39:57.301Z,99875.44
2018-10-05T02:45:29.514Z,100114.99
2018-10-05T02:47:59.825Z,100115.56
2018-10-05T02:50:30.513Z,100111.70
2018-10-05T02:53:01.455Z,100106.73
2018-10-05T02:55:31.729Z,100103.78
2018-10-05T02:58:02.256Z,100110.94
2018-10-05T03:00:44.816Z,100111.55
2018-10-05T03:03:15.416Z,100100.33
2018-10-05T03:05:45.736Z,100103.55
2018-10-05T03:08:16.489Z,100095.17
2018-10-05T03:10:47.015Z,100095.81
2018-10-05T03:13:17.864Z,100104.22
2018-10-05T03:15:48.589Z,100095.67
2018-10-05T03:18:19.632Z,100097.25
2018-10-05T03:20:50.363Z,100095.37
2018-10-05T03:23:21.077Z,100089.15
2018-10-05T03:25:51.719Z,100089.69
2018-10-05T03:28:22.416Z,100096.06
2018-10-05T03:30:52.936Z,100092.81
2018-10-05T03:33:23.477Z,100091.15
2018-10-05T03:35:54.828Z,100099.05
2018-10-05T03:38:25.322Z,100088.11
2018-10-05T03:40:56.144Z,100087.26
2018-10-05T03:43:27.341Z,100090.03
2018-10-05T03:45:58.313Z,100090.61
2018-10-05T03:48:28.582Z,100078.97
2018-10-05T03:51:00.399Z,100074.62
2018-10-05T03:53:30.972Z,100068.80
2018-10-05T03:56:01.888Z,100080.91
2018-10-05T03:58:32.611Z,100074.50
2018-10-05T04:01:03.157Z,100073.46
2018-10-05T04:03:34.649Z,100073.59
2018-10-05T04:06:04.976Z,100072.81
2018-10-05T04:08:36.177Z,100080.72
2018-10-05T04:11:06.758Z,100076.90
2018-10-05T04:13:39.919Z,100082.74
2018-10-05T04:16:10.467Z,100082.62
2018-10-05T04:18:41.190Z,100077.36
2018-10-05T04:21:12.436Z,100084.58
2018-10-05T04:23:43.071Z,100083.05
2018-10-05T04:26:13.659Z,100073.88
2018-10-05T04:28:44.154Z,100073.72
2018-10-05T04:31:14.988Z,100066.61
2018-10-05T04:33:46.078Z,100069.59
2018-10-05T04:36:17.113Z,100062.97
2018-10-05T04:38:48.104Z,100063.19
2018-10-05T04:41:18.689Z,100060.06
2018-10-05T04:43:50.192Z,100071.48
2018-10-05T04:46:20.804Z,100073.20
2018-10-05T04:48:51.053Z,100080.83
2018-10-05T04:51:21.609Z,100084.89
2018-10-05T04:53:52.824Z,100089.69
2018-10-05T04:56:23.732Z,100088.39
2018-10-05T04:58:54.114Z,100083.39
2018-10-05T05:01:24.402Z,100083.20
2018-10-05T05:03:54.937Z,100088.64
2018-10-05T05:06:25.477Z,100088.66
2018-10-05T05:08:56.189Z,100086.22
2018-10-05T05:11:26.880Z,100091.97
2018-10-05T05:13:57.132Z,100096.05
2018-10-05T05:16:27.684Z,100095.64
2018-10-05T05:18:59.125Z,100095.21
2018-10-05T05:21:29.739Z,100100.23
2018-10-05T05:24:00.932Z,100102.35
2018-10-05T05:26:31.496Z,100099.72
2018-10-05T05:29:01.997Z,100101.33
2018-10-05T05:31:32.584Z,100103.97
2018-10-05T05:34:03.194Z,100108.16
2018-10-05T05:36:33.601Z,100113.80
2018-10-05T05:39:05.344Z,100112.82
2018-10-05T05:41:35.946Z,100083.66
2018-10-05T05:44:06.220Z,100118.95
2018-10-05T05:46:36.808Z,100126.65
2018-10-05T05:49:07.572Z,100125.91
2018-10-05T05:51:37.798Z,100128.87
2018-10-05T05:54:08.098Z,100133.03
2018-10-05T05:56:38.781Z,100131.44
2018-10-05T05:59:09.045Z,100127.23
2018-10-05T06:01:39.305Z,100126.52
2018-10-05T06:04:09.557Z,100119.16
2018-10-05T06:06:40.998Z,100131.24
2018-10-05T06:09:11.637Z,100124.41
2018-10-05T06:11:42.108Z,100130.50
2018-10-05T06:14:12.620Z,100127.76
2018-10-05T06:16:42.872Z,100121.69
2018-10-05T06:19:13.474Z,100133.48
2018-10-05T06:21:44.274Z,100121.27
2018-10-05T06:24:15.106Z,100126.28
2018-10-05T06:26:45.560Z,100123.94
2018-10-05T06:29:16.846Z,100124.61
2018-10-05T06:31:48.113Z,100122.37
2018-10-05T06:34:18.485Z,100125.41
2018-10-05T06:36:48.813Z,100126.53
2018-10-05T06:39:19.427Z,100124.25
2018-10-05T06:41:50.065Z,100127.05
2018-10-05T06:44:20.572Z,100129.41
2018-10-05T06:46:51.207Z,100129.99
2018-10-05T06:49:22.010Z,100129.91
2018-10-05T06:51:52.573Z,100136.42
2018-10-05T06:54:23.131Z,100127.30
2018-10-05T06:56:53.685Z,100122.27
2018-10-05T06:59:25.492Z,100130.07
2018-10-05T07:01:55.877Z,100127.98
2018-10-05T07:04:26.289Z,100124.47
2018-10-05T07:06:57.396Z,100133.55
2018-10-05T07:09:27.941Z,100121.38
2018-10-05T07:11:59.100Z,100122.88
2018-10-05T07:14:29.760Z,100126.50
2018-10-05T07:17:00.372Z,100125.97
2018-10-05T07:19:31.284Z,100123.78
2018-10-05T07:22:02.618Z,100121.76
2018-10-05T07:24:34.591Z,100114.80
2018-10-05T07:27:05.190Z,100119.80
2018-10-05T07:29:35.741Z,100113.95
2018-10-05T07:32:06.300Z,100118.17
2018-10-05T07:34:36.917Z,100117.16
2018-10-05T07:37:07.567Z,100106.98
2018-10-05T07:39:38.237Z,100109.02
2018-10-05T07:42:08.990Z,100123.98
2018-10-05T07:44:42.302Z,100113.59
2018-10-05T07:47:12.791Z,100111.36
2018-10-05T07:49:43.292Z,100110.38
2018-10-05T07:52:13.935Z,100109.39
2018-10-05T07:54:44.468Z,100114.01
2018-10-05T07:57:15.433Z,99973.14
2018-10-05T07:59:46.029Z,100098.20
2018-10-05T08:02:16.733Z,100090.45
2018-10-05T08:04:46.936Z,100088.88
2018-10-05T08:07:17.913Z,100097.04
2018-10-05T08:09:48.649Z,100090.95
2018-10-05T08:12:18.881Z,100089.84
2018-10-05T08:14:49.693Z,100076.95
2018-10-05T08:17:20.203Z,100082.82
2018-10-05T08:19:50.817Z,100077.19
2018-10-05T08:22:21.586Z,100088.27
2018-10-05T08:24:52.304Z,100084.81
2018-10-05T08:27:22.543Z,100082.38
2018-10-05T08:29:53.174Z,100076.70
2018-10-05T08:32:23.704Z,100071.77
2018-10-05T08:34:53.929Z,100070.06
2018-10-05T08:37:24.472Z,100066.33
2018-10-05T08:39:54.759Z,100051.58
2018-10-05T08:42:25.536Z,100051.02
2018-10-05T08:44:55.784Z,100046.78
2018-10-05T08:47:26.420Z,100043.70
2018-10-05T08:49:57.045Z,100043.81
2018-10-05T08:52:27.619Z,100037.31
2018-10-05T08:54:58.412Z,100030.67
2018-10-05T08:57:29.169Z,100029.83
2018-10-05T08:59:59.823Z,100026.66
2018-10-05T09:02:30.682Z,100027.93
2018-10-05T09:05:01.638Z,100022.49
2018-10-05T09:07:32.165Z,100011.53
2018-10-05T09:10:03.425Z,100007.66
2018-10-05T09:12:33.981Z,100001.19
2018-10-05T09:15:04.993Z,100006.78
2018-10-05T09:17:35.287Z,100009.66
2018-10-05T09:20:06.326Z,100007.86
2018-10-05T09:22:37.076Z,100000.24
2018-10-05T09:25:08.124Z,100007.81
2018-10-05T09:27:39.333Z,100000.63
2018-10-05T09:30:09.979Z,100001.87
2018-10-05T09:32:41.065Z,99998.63
2018-10-05T09:35:11.592Z,99989.48
2018-10-05T09:37:42.504Z,99989.84
2018-10-05T09:40:13.362Z,99989.27
2018-10-05T09:42:44.018Z,99975.91
2018-10-05T09:45:14.640Z,99984.55
2018-10-05T09:47:45.288Z,99977.13
2018-10-05T09:50:16.477Z,99962.55
2018-10-05T09:52:47.137Z,99972.23
2018-10-05T09:55:18.080Z,99974.95
2018-10-05T09:57:48.331Z,99973.55
2018-10-05T10:02:29.553Z,99959.33
2018-10-05T10:04:59.849Z,99957.47
2018-10-05T10:07:30.121Z,99942.74
2018-10-05T10:10:00.748Z,99945.80
2018-10-05T10:12:33.111Z,99954.55
2018-10-05T10:15:05.599Z,99945.55
2018-10-05T10:17:36.241Z,99950.30
2018-10-05T10:20:06.791Z,99899.62
2018-10-05T10:22:37.468Z,99943.11
2018-10-05T10:25:08.021Z,99933.73
2018-10-05T10:27:38.734Z,99935.45
2018-10-05T10:30:09.453Z,99929.42
2018-10-05T10:32:43.781Z,99928.42
2018-10-05T10:35:14.485Z,99921.15
2018-10-05T10:37:44.979Z,99918.91
2018-10-05T10:40:15.657Z,99930.55
2018-10-05T10:42:46.240Z,99922.14
2018-10-05T10:45:18.181Z,99918.41
2018-10-05T10:47:48.814Z,99917.41
2018-10-05T10:50:19.572Z,99912.11
2018-10-05T10:52:50.384Z,99907.80
2018-10-05T10:55:21.132Z,99911.91
2018-10-05T10:57:51.670Z,99906.59
2018-10-05T11:00:21.905Z,99906.98
2018-10-05T11:02:52.496Z,99904.99
2018-10-05T11:05:23.282Z,99902.81
2018-10-05T11:07:53.919Z,99893.75
2018-10-05T11:10:24.707Z,99887.37
2018-10-05T11:12:55.200Z,99893.20
2018-10-05T11:15:25.554Z,99897.57
2018-10-05T11:17:56.284Z,99887.12
2018-10-05T11:20:27.114Z,99884.44
2018-10-05T11:22:57.893Z,99877.22
2018-10-05T11:25:28.783Z,99879.06
2018-10-05T11:27:59.488Z,99870.98
2018-10-05T11:30:31.159Z,99877.27
2018-10-05T11:33:03.481Z,99866.49
2018-10-05T11:35:34.066Z,99856.94
2018-10-05T11:38:04.865Z,99870.86
2018-10-05T11:40:35.501Z,99862.97
2018-10-05T11:43:06.337Z,99859.66
2018-10-05T11:45:36.825Z,99865.56
2018-10-05T11:48:07.529Z,99853.94
2018-10-05T11:50:38.041Z,99851.98
2018-10-05T11:53:09.427Z,99849.73
2018-10-05T11:55:41.264Z,99844.92
2018-10-05T11:58:11.858Z,99842.17
2018-10-05T12:00:42.470Z,99834.28
2018-10-05T12:03:12.717Z,99833.95
2018-10-05T12:05:43.368Z,99829.41
2018-10-05T12:08:13.845Z,99839.72
2018-10-05T12:10:44.381Z,99826.50
2018-10-05T12:13:14.872Z,99830.25
2018-10-05T12:15:45.681Z,99826.74
2018-10-05T12:18:16.035Z,99821.72
2018-10-05T12:20:46.536Z,99826.28
2018-10-05T12:23:16.777Z,99822.68
2018-10-05T12:25:47.304Z,99820.77
2018-10-05T12:28:17.841Z,99818.10
2018-10-05T12:30:48.383Z,99822.91
2018-10-05T12:33:18.977Z,99825.56
2018-10-05T12:35:49.727Z,99817.73
2018-10-05T12:38:21.794Z,99817.89
2018-10-05T12:40:52.633Z,99816.17
2018-10-05T12:43:23.454Z,99812.17
2018-10-05T12:45:53.964Z,99808.28
2018-10-05T12:48:24.469Z,99812.44
2018-10-05T12:50:55.053Z,99811.37
2018-10-05T12:53:26.505Z,99795.90
2018-10-05T12:55:57.018Z,99807.91
2018-10-05T12:58:27.623Z,99803.50
2018-10-05T13:00:58.610Z,99801.39
2018-10-05T13:03:29.237Z,99806.88
2018-10-05T13:06:00.301Z,99805.89
2018-10-05T13:08:30.812Z,99800.83
2018-10-05T13:11:01.141Z,99801.52
2018-10-05T13:13:31.729Z,99759.89
2018-10-05T13:16:02.294Z,99799.42
2018-10-05T13:18:33.237Z,99794.15
2018-10-05T13:21:03.888Z,99795.11
2018-10-05T13:23:34.392Z,99789.00
2018-10-05T13:26:04.932Z,99784.03
2018-10-05T13:28:35.557Z,99788.03
2018-10-05T13:31:06.501Z,99784.15
2018-10-05T13:33:37.018Z,99514.45
2018-10-05T13:36:07.593Z,99776.73
2018-10-05T13:38:38.246Z,99780.09
2018-10-05T13:41:09.085Z,99773.39
2018-10-05T13:43:40.176Z,99773.61
2018-10-05T13:46:10.677Z,99776.09
2018-10-05T13:48:46.307Z,99762.83
2018-10-05T13:51:17.055Z,99768.08
2018-10-05T13:53:47.571Z,99760.97
2018-10-05T13:56:18.181Z,99760.14
2018-10-05T13:58:52.740Z,99758.90
2018-10-05T14:01:23.252Z,99752.78
2018-10-05T14:03:53.476Z,99740.13
2018-10-05T14:06:23.842Z,99746.92
2018-10-05T14:08:54.332Z,99754.05
2018-10-05T14:11:24.571Z,99745.94
2018-10-05T14:13:54.890Z,99753.78
2018-10-05T14:16:25.432Z,99754.27
2018-10-05T14:18:55.990Z,99741.95
2018-10-05T14:21:26.473Z,99746.33
2018-10-05T14:23:56.991Z,99735.32
2018-10-05T14:26:27.532Z,99739.51
2018-10-05T14:28:57.805Z,99740.22
2018-10-05T14:31:28.181Z,99733.02
2018-10-05T14:33:58.752Z,99737.53
2018-10-05T14:36:29.434Z,99747.77
2018-10-05T14:38:59.668Z,99735.95
2018-10-05T14:41:30.394Z,99739.99
2018-10-05T14:44:00.833Z,99736.49
2018-10-05T14:46:31.575Z,99744.02
2018-10-05T14:49:02.132Z,99739.18
2018-10-05T14:51:32.790Z,99738.20
2018-10-05T14:54:04.294Z,99738.69
2018-10-05T14:56:35.465Z,99744.76
2018-10-05T14:59:06.004Z,99743.55
2018-10-05T15:01:36.405Z,99743.78
2018-10-05T15:04:06.894Z,99737.09
2018-10-05T15:06:37.801Z,99741.23
2018-10-05T15:09:08.358Z,99726.37
2018-10-05T15:11:38.871Z,99735.91
2018-10-05T15:14:09.196Z,99737.48
2018-10-05T15:16:39.490Z,99737.59
2018-10-05T15:19:09.998Z,99731.36
2018-10-05T15:21:40.517Z,99731.86
2018-10-05T15:24:11.200Z,99733.02
2018-10-05T15:26:41.639Z,99732.88
2018-10-05T15:29:12.172Z,99725.97
2018-10-05T15:31:42.538Z,99727.15
2018-10-05T15:34:13.329Z,99730.20
2018-10-05T15:36:44.183Z,99739.30
2018-10-05T15:39:15.049Z,99739.48
2018-10-05T15:41:45.708Z,99733.74
2018-10-05T15:44:16.411Z,99726.63
2018-10-05T15:47:05.589Z,99725.05
2018-10-05T15:49:36.416Z,99721.12
2018-10-05T15:52:06.763Z,99715.83
2018-10-05T15:54:37.427Z,99718.37
2018-10-05T15:57:07.969Z,99717.16
2018-10-05T15:59:38.802Z,99713.58
2018-10-05T16:02:09.425Z,99713.40
2018-10-05T16:04:54.553Z,99719.55
2018-10-05T16:07:30.340Z,99709.23
2018-10-05T16:10:00.914Z,99711.20
2018-10-05T16:12:31.397Z,99711.48
2018-10-05T16:15:01.895Z,99716.98
2018-10-05T16:17:32.890Z,99709.52
2018-10-05T16:20:03.800Z,99713.06
2018-10-05T16:22:34.372Z,99715.99
2018-10-05T16:25:05.337Z,99711.27
2018-10-05T16:27:35.920Z,99711.55
2018-10-05T16:30:07.785Z,99707.89
2018-10-05T16:32:38.521Z,99708.25
2018-10-05T16:35:09.682Z,99705.67
2018-10-05T16:37:40.214Z,99709.13
2018-10-05T16:40:10.753Z,99707.16
2018-10-05T16:42:41.290Z,99707.64
2018-10-05T16:45:11.825Z,99708.28
2018-10-05T16:47:42.645Z,99711.14
2018-10-05T16:50:13.462Z,99718.55
2018-10-05T16:52:44.284Z,99716.84
2018-10-05T16:55:15.749Z,99715.27
2018-10-05T16:57:46.268Z,99721.74
2018-10-05T17:00:16.894Z,99718.34
2018-10-05T17:02:47.972Z,99715.35
2018-10-05T17:05:18.213Z,99708.42
2018-10-05T17:07:48.965Z,99706.48
2018-10-05T17:10:19.584Z,99708.58
2018-10-05T17:12:50.289Z,99706.38
2018-10-05T17:15:20.560Z,99704.80
2018-10-05T17:17:51.960Z,99697.13
2018-10-05T17:20:22.480Z,99689.84
2018-10-05T17:22:53.197Z,99687.17
2018-10-05T17:25:23.733Z,99692.69
2018-10-05T17:27:55.048Z,99677.56
2018-10-05T17:30:25.325Z,99685.77
2018-10-05T17:32:56.142Z,99689.18
2018-10-05T17:35:26.755Z,99683.38
2018-10-05T17:37:57.576Z,99687.37
2018-10-05T17:40:28.125Z,99677.60
2018-10-05T17:43:00.150Z,99686.13
2018-10-05T17:45:31.033Z,99684.23
2018-10-05T17:48:01.767Z,99679.03
2018-10-05T17:50:32.391Z,99677.02
2018-10-05T17:53:02.869Z,99681.69
2018-10-05T17:55:33.567Z,99676.08
2018-10-05T17:58:04.637Z,99680.63
2018-10-05T18:00:35.210Z,99672.66
2018-10-05T18:03:05.957Z,99669.70
2018-10-05T18:05:36.478Z,99676.73
2018-10-05T18:08:07.265Z,99672.17
2018-10-05T18:10:38.358Z,99673.79
2018-10-05T18:13:08.892Z,99666.77
2018-10-05T18:15:39.831Z,99670.00
2018-10-05T18:18:10.346Z,99663.53
2018-10-05T18:20:40.918Z,99667.63
2018-10-05T18:23:11.506Z,99668.00
2018-10-05T18:25:42.084Z,99660.13
2018-10-05T18:28:12.792Z,99669.97
2018-10-05T18:30:43.437Z,99660.96
2018-10-05T18:33:14.150Z,99664.77
2018-10-05T18:35:44.833Z,99655.84
2018-10-05T18:38:16.460Z,99652.91
2018-10-05T18:40:47.206Z,99653.34
2018-10-05T18:43:17.501Z,99658.40
2018-10-05T18:45:48.304Z,99654.20
2018-10-05T18:48:18.850Z,99652.50
2018-10-05T18:50:49.677Z,99659.81
2018-10-05T18:53:20.062Z,99656.69
2018-10-05T18:55:50.336Z,99658.50
2018-10-05T18:58:20.672Z,99650.05
2018-10-05T19:00:51.229Z,99651.66
2018-10-05T19:03:21.521Z,99625.27
2018-10-05T19:05:52.284Z,99642.76
2018-10-05T19:08:22.888Z,99646.17
2018-10-05T19:10:53.137Z,99644.53
2018-10-05T19:13:23.777Z,99640.17
2018-10-05T19:15:54.313Z,99631.92
2018-10-05T19:18:24.879Z,99629.27
2018-10-05T19:20:55.947Z,99624.52
2018-10-05T19:23:27.101Z,99623.97
2018-10-05T19:25:58.149Z,99628.41
2018-10-05T19:28:28.872Z,99618.45
2018-10-05T19:31:00.159Z,99628.11
2018-10-05T19:33:32.005Z,99622.77
2018-10-05T19:36:02.292Z,99623.89
2018-10-05T19:38:33.125Z,99620.65
2018-10-05T19:41:03.648Z,99624.09
2018-10-05T19:43:34.201Z,99623.89
2018-10-05T19:46:04.474Z,99637.32
2018-10-05T19:48:35.267Z,99625.56
2018-10-05T19:51:05.828Z,99619.84
2018-10-05T19:53:36.418Z,99622.35
2018-10-05T19:56:07.045Z,99617.91
2018-10-05T19:58:37.608Z,99616.73
2018-10-05T20:01:08.294Z,99608.35
2018-10-05T20:03:38.550Z,99613.81
2018-10-05T20:06:09.245Z,99605.55
2018-10-05T20:08:39.506Z,99602.43
2018-10-05T20:11:10.066Z,99599.92
2018-10-05T20:13:40.533Z,99601.36
2018-10-05T20:16:11.062Z,99593.39
2018-10-05T20:18:41.376Z,99601.11
2018-10-05T20:21:11.645Z,99599.63
2018-10-05T20:23:42.203Z,99591.78
2018-10-05T20:26:12.495Z,99586.34
2018-10-05T20:28:42.714Z,99584.25
2018-10-05T20:31:13.838Z,99590.56
2018-10-05T20:33:44.153Z,99589.12
2018-10-05T20:36:14.785Z,99582.37
2018-10-05T20:38:45.172Z,99583.50
2018-10-05T20:41:16.796Z,99585.98
2018-10-05T20:43:47.826Z,99578.42
2018-10-05T20:46:18.429Z,99584.42
2018-10-05T20:48:49.153Z,99577.31
2018-10-05T20:51:19.745Z,99566.92
2018-10-05T20:53:50.337Z,99574.57
2018-10-05T20:56:20.619Z,99570.75
2018-10-05T20:58:51.324Z,99569.52
2018-10-05T21:01:21.569Z,99569.40
2018-10-05T21:03:51.941Z,99562.03
2018-10-05T21:06:22.985Z,99566.92
2018-10-05T21:08:53.679Z,99559.70
2018-10-05T21:11:24.268Z,99562.91
2018-10-05T21:13:54.795Z,99558.06
2018-10-05T21:16:25.094Z,99565.16
2018-10-05T21:18:55.692Z,99558.33
2018-10-05T21:21:26.524Z,99547.62
2018-10-05T21:23:56.915Z,99554.25
2018-10-05T21:26:28.053Z,99550.83
2018-10-05T21:29:00.014Z,99554.44
2018-10-05T21:31:30.685Z,99554.77
2018-10-05T21:34:01.365Z,99551.37
2018-10-05T21:36:32.372Z,99552.33
2018-10-05T21:39:05.243Z,99537.28
2018-10-05T21:41:35.536Z,99543.08
2018-10-05T21:44:05.829Z,99547.52
2018-10-05T21:46:36.352Z,99549.44
2018-10-05T21:49:06.949Z,99552.39
2018-10-05T21:51:37.657Z,99555.20
2018-10-05T21:54:08.380Z,99558.76
2018-10-05T21:56:39.089Z,99557.09
2018-10-05T21:59:09.645Z,99556.69
2018-10-05T22:01:39.967Z,99554.73
2018-10-05T22:04:10.281Z,99551.28
2018-10-05T22:06:40.539Z,99553.54
2018-10-05T22:09:11.610Z,99532.55
2018-10-05T22:11:41.821Z,99544.61
2018-10-05T22:14:12.047Z,99546.81
2018-10-05T22:16:42.336Z,99535.11
2018-10-05T22:19:12.872Z,99529.80
2018-10-05T22:21:43.691Z,99535.53
2018-10-05T22:24:14.257Z,99526.81
2018-10-05T22:26:45.060Z,99518.16
2018-10-05T22:29:15.585Z,99518.56
2018-10-05T22:31:45.837Z,99513.25
2018-10-05T22:34:16.518Z,99514.79
2018-10-05T22:36:47.294Z,99512.42
2018-10-05T22:39:17.830Z,99514.78
2018-10-05T22:41:48.863Z,99515.08
2018-10-05T22:44:19.410Z,99507.58
2018-10-05T22:46:49.954Z,99509.19
2018-10-05T22:49:20.218Z,99501.77
2018-10-05T22:51:50.699Z,99507.91
2018-10-05T22:54:21.535Z,99500.49
2018-10-05T22:56:51.759Z,99492.61
2018-10-05T22:59:22.000Z,99489.30
2018-10-05T23:01:52.951Z,99490.45
2018-10-05T23:04:23.333Z,99463.89
2018-10-05T23:06:53.853Z,99487.31
2018-10-05T23:09:24.671Z,99490.91
2018-10-05T23:11:55.216Z,99487.18
2018-10-05T23:14:25.770Z,99483.69
2018-10-05T23:16:57.264Z,99485.23
2018-10-05T23:19:28.037Z,99487.59
2018-10-05T23:21:58.567Z,99483.94
2018-10-05T23:24:29.399Z,99491.11
2018-10-05T23:27:00.266Z,99487.97
2018-10-05T23:29:30.801Z,99487.23
2018-10-05T23:32:01.341Z,99485.23
2018-10-05T23:34:31.999Z,99487.34
2018-10-05T23:37:02.663Z,99487.30
2018-10-05T23:39:32.925Z,99490.89
2018-10-05T23:42:03.791Z,99482.83
2018-10-05T23:44:34.318Z,99480.45
2018-10-05T23:47:04.789Z,99479.69
2018-10-05T23:49:35.342Z,99488.96
2018-10-05T23:52:39.664Z,99479.80
2018-10-05T23:57:55.145Z,99475.49
